sensor_id;sensor_type;location;lat;lon;timestamp;temperature;humidity
27072;DHT22;14613;46.308;25.288;2023-10-31T00:02:14;8.50;80.80
27072;DHT22;14613;46.308;25.288;2023-10-31T00:04:40;8.50;80.80
27072;DHT22;14613;46.308;25.288;2023-10-31T00:07:06;8.50;80.80
27072;DHT22;14613;46.308;25.288;2023-10-31T00:09:32;8.50;81.10
27072;DHT22;14613;46.308;25.288;2023-10-31T00:11:58;8.50;81.60
27072;DHT22;14613;46.308;25.288;2023-10-31T00:14:24;8.50;80.90
27072;DHT22;14613;46.308;25.288;2023-10-31T00:16:50;8.50;80.80
27072;DHT22;14613;46.308;25.288;2023-10-31T00:19:15;8.40;80.70
27072;DHT22;14613;46.308;25.288;2023-10-31T00:21:41;8.40;80.80
27072;DHT22;14613;46.308;25.288;2023-10-31T00:24:07;8.40;80.80
27072;DHT22;14613;46.308;25.288;2023-10-31T00:26:33;8.40;80.90
27072;DHT22;14613;46.308;25.288;2023-10-31T00:28:58;8.30;81.00
27072;DHT22;14613;46.308;25.288;2023-10-31T00:31:24;8.30;81.10
27072;DHT22;14613;46.308;25.288;2023-10-31T00:33:50;8.20;81.20
27072;DHT22;14613;46.308;25.288;2023-10-31T00:36:15;8.20;81.30
27072;DHT22;14613;46.308;25.288;2023-10-31T00:38:41;8.20;81.40
27072;DHT22;14613;46.308;25.288;2023-10-31T00:41:07;8.10;81.50
27072;DHT22;14613;46.308;25.288;2023-10-31T00:43:33;8.10;81.50
27072;DHT22;14613;46.308;25.288;2023-10-31T00:45:58;8.10;81.70
27072;DHT22;14613;46.308;25.288;2023-10-31T00:48:24;8.00;81.80
27072;DHT22;14613;46.308;25.288;2023-10-31T00:50:50;8.00;82.00
27072;DHT22;14613;46.308;25.288;2023-10-31T00:53:16;8.00;82.00
27072;DHT22;14613;46.308;25.288;2023-10-31T00:55:42;8.00;82.10
27072;DHT22;14613;46.308;25.288;2023-10-31T00:58:08;8.00;82.10
27072;DHT22;14613;46.308;25.288;2023-10-31T01:00:34;8.00;82.10
27072;DHT22;14613;46.308;25.288;2023-10-31T01:03:00;8.00;82.10
27072;DHT22;14613;46.308;25.288;2023-10-31T01:05:26;8.00;82.00
27072;DHT22;14613;46.308;25.288;2023-10-31T01:07:54;8.00;82.00
27072;DHT22;14613;46.308;25.288;2023-10-31T01:10:20;8.00;82.00
27072;DHT22;14613;46.308;25.288;2023-10-31T01:12:46;8.00;82.00
27072;DHT22;14613;46.308;25.288;2023-10-31T01:15:11;8.00;82.00
27072;DHT22;14613;46.308;25.288;2023-10-31T01:17:37;8.00;81.90
27072;DHT22;14613;46.308;25.288;2023-10-31T01:20:03;7.90;81.90
27072;DHT22;14613;46.308;25.288;2023-10-31T01:22:29;7.90;81.90
27072;DHT22;14613;46.308;25.288;2023-10-31T01:24:55;7.90;82.00
27072;DHT22;14613;46.308;25.288;2023-10-31T01:27:21;7.80;82.00
27072;DHT22;14613;46.308;25.288;2023-10-31T01:29:46;7.80;82.10
27072;DHT22;14613;46.308;25.288;2023-10-31T01:32:12;7.80;82.20
27072;DHT22;14613;46.308;25.288;2023-10-31T01:34:38;7.80;82.20
27072;DHT22;14613;46.308;25.288;2023-10-31T01:37:04;7.80;82.30
27072;DHT22;14613;46.308;25.288;2023-10-31T01:39:30;7.70;82.20
27072;DHT22;14613;46.308;25.288;2023-10-31T01:41:55;7.70;82.30
27072;DHT22;14613;46.308;25.288;2023-10-31T01:44:21;7.70;82.30
27072;DHT22;14613;46.308;25.288;2023-10-31T01:46:47;7.70;82.40
27072;DHT22;14613;46.308;25.288;2023-10-31T01:49:14;7.70;82.30
27072;DHT22;14613;46.308;25.288;2023-10-31T01:51:41;7.60;82.30
27072;DHT22;14613;46.308;25.288;2023-10-31T01:54:08;7.60;82.40
27072;DHT22;14613;46.308;25.288;2023-10-31T01:56:35;7.60;82.50
27072;DHT22;14613;46.308;25.288;2023-10-31T01:59:01;7.60;82.50
27072;DHT22;14613;46.308;25.288;2023-10-31T02:01:27;7.60;82.50
27072;DHT22;14613;46.308;25.288;2023-10-31T02:03:54;7.60;82.50
27072;DHT22;14613;46.308;25.288;2023-10-31T02:06:19;7.60;82.50
27072;DHT22;14613;46.308;25.288;2023-10-31T02:08:47;7.60;82.50
27072;DHT22;14613;46.308;25.288;2023-10-31T02:11:13;7.60;82.50
27072;DHT22;14613;46.308;25.288;2023-10-31T02:13:39;7.50;82.50
27072;DHT22;14613;46.308;25.288;2023-10-31T02:16:05;7.50;82.50
27072;DHT22;14613;46.308;25.288;2023-10-31T02:18:32;7.50;82.60
27072;DHT22;14613;46.308;25.288;2023-10-31T02:20:58;7.50;82.60
27072;DHT22;14613;46.308;25.288;2023-10-31T02:23:24;7.50;83.40
27072;DHT22;14613;46.308;25.288;2023-10-31T02:25:49;7.40;82.60
27072;DHT22;14613;46.308;25.288;2023-10-31T02:28:15;7.40;82.60
27072;DHT22;14613;46.308;25.288;2023-10-31T02:30:41;7.40;82.60
27072;DHT22;14613;46.308;25.288;2023-10-31T02:33:06;7.40;82.70
27072;DHT22;14613;46.308;25.288;2023-10-31T02:35:32;7.40;82.70
27072;DHT22;14613;46.308;25.288;2023-10-31T02:37:58;7.30;82.70
27072;DHT22;14613;46.308;25.288;2023-10-31T02:40:24;7.30;82.80
27072;DHT22;14613;46.308;25.288;2023-10-31T02:42:50;7.30;82.90
27072;DHT22;14613;46.308;25.288;2023-10-31T02:45:15;7.20;83.00
27072;DHT22;14613;46.308;25.288;2023-10-31T02:47:41;7.20;83.00
27072;DHT22;14613;46.308;25.288;2023-10-31T02:50:07;7.20;83.10
27072;DHT22;14613;46.308;25.288;2023-10-31T02:52:33;7.20;83.10
27072;DHT22;14613;46.308;25.288;2023-10-31T02:54:59;7.20;83.10
27072;DHT22;14613;46.308;25.288;2023-10-31T02:57:24;7.20;83.20
27072;DHT22;14613;46.308;25.288;2023-10-31T02:59:50;7.20;83.10
27072;DHT22;14613;46.308;25.288;2023-10-31T03:02:16;7.20;83.90
27072;DHT22;14613;46.308;25.288;2023-10-31T03:04:42;7.20;83.10
27072;DHT22;14613;46.308;25.288;2023-10-31T03:07:07;7.20;83.10
27072;DHT22;14613;46.308;25.288;2023-10-31T03:09:33;7.20;82.90
27072;DHT22;14613;46.308;25.288;2023-10-31T03:11:59;7.20;82.90
27072;DHT22;14613;46.308;25.288;2023-10-31T03:14:25;7.20;82.90
27072;DHT22;14613;46.308;25.288;2023-10-31T03:16:50;7.20;82.90
27072;DHT22;14613;46.308;25.288;2023-10-31T03:19:16;7.10;82.90
27072;DHT22;14613;46.308;25.288;2023-10-31T03:21:42;7.10;83.00
27072;DHT22;14613;46.308;25.288;2023-10-31T03:24:08;7.10;83.10
27072;DHT22;14613;46.308;25.288;2023-10-31T03:26:34;7.00;83.10
27072;DHT22;14613;46.308;25.288;2023-10-31T03:29:00;7.00;83.20
27072;DHT22;14613;46.308;25.288;2023-10-31T03:31:26;7.00;83.20
27072;DHT22;14613;46.308;25.288;2023-10-31T03:33:51;7.00;83.30
27072;DHT22;14613;46.308;25.288;2023-10-31T03:36:18;7.00;83.30
27072;DHT22;14613;46.308;25.288;2023-10-31T03:38:44;7.00;83.40
27072;DHT22;14613;46.308;25.288;2023-10-31T03:41:10;6.90;83.40
27072;DHT22;14613;46.308;25.288;2023-10-31T03:43:36;6.90;83.50
27072;DHT22;14613;46.308;25.288;2023-10-31T03:46:02;6.90;83.50
27072;DHT22;14613;46.308;25.288;2023-10-31T03:48:27;6.90;83.50
27072;DHT22;14613;46.308;25.288;2023-10-31T03:50:53;6.90;83.60
27072;DHT22;14613;46.308;25.288;2023-10-31T03:53:19;6.80;83.50
27072;DHT22;14613;46.308;25.288;2023-10-31T03:55:45;6.80;83.60
27072;DHT22;14613;46.308;25.288;2023-10-31T03:58:11;6.80;83.70
27072;DHT22;14613;46.308;25.288;2023-10-31T04:00:36;6.80;83.70
27072;DHT22;14613;46.308;25.288;2023-10-31T04:03:04;6.80;83.80
27072;DHT22;14613;46.308;25.288;2023-10-31T04:05:29;6.80;83.80
27072;DHT22;14613;46.308;25.288;2023-10-31T04:07:55;6.80;83.80
27072;DHT22;14613;46.308;25.288;2023-10-31T04:10:21;6.80;83.80
27072;DHT22;14613;46.308;25.288;2023-10-31T04:12:47;6.80;83.70
27072;DHT22;14613;46.308;25.288;2023-10-31T04:15:13;6.80;83.70
27072;DHT22;14613;46.308;25.288;2023-10-31T04:17:38;6.70;83.50
27072;DHT22;14613;46.308;25.288;2023-10-31T04:20:05;6.80;83.60
27072;DHT22;14613;46.308;25.288;2023-10-31T04:22:30;6.70;83.70
27072;DHT22;14613;46.308;25.288;2023-10-31T04:24:56;6.70;83.70
27072;DHT22;14613;46.308;25.288;2023-10-31T04:27:22;6.70;83.70
27072;DHT22;14613;46.308;25.288;2023-10-31T04:29:48;6.70;83.80
27072;DHT22;14613;46.308;25.288;2023-10-31T04:32:14;6.60;83.80
27072;DHT22;14613;46.308;25.288;2023-10-31T04:34:39;6.60;83.90
27072;DHT22;14613;46.308;25.288;2023-10-31T04:37:05;6.60;84.00
27072;DHT22;14613;46.308;25.288;2023-10-31T04:39:31;6.50;83.90
27072;DHT22;14613;46.308;25.288;2023-10-31T04:41:57;6.50;84.00
27072;DHT22;14613;46.308;25.288;2023-10-31T04:44:23;6.50;84.00
27072;DHT22;14613;46.308;25.288;2023-10-31T04:46:48;6.50;84.10
27072;DHT22;14613;46.308;25.288;2023-10-31T04:49:14;6.50;84.20
27072;DHT22;14613;46.308;25.288;2023-10-31T04:51:41;6.40;84.20
27072;DHT22;14613;46.308;25.288;2023-10-31T04:54:07;6.40;84.30
27072;DHT22;14613;46.308;25.288;2023-10-31T04:56:33;6.40;84.20
27072;DHT22;14613;46.308;25.288;2023-10-31T04:58:59;6.40;84.20
27072;DHT22;14613;46.308;25.288;2023-10-31T05:01:25;6.40;84.20
27072;DHT22;14613;46.308;25.288;2023-10-31T05:03:51;6.40;84.30
27072;DHT22;14613;46.308;25.288;2023-10-31T05:06:22;6.40;84.30
27072;DHT22;14613;46.308;25.288;2023-10-31T05:08:48;6.30;84.30
27072;DHT22;14613;46.308;25.288;2023-10-31T05:11:18;6.30;84.40
27072;DHT22;14613;46.308;25.288;2023-10-31T05:13:44;6.30;84.50
27072;DHT22;14613;46.308;25.288;2023-10-31T05:16:10;6.30;84.50
27072;DHT22;14613;46.308;25.288;2023-10-31T05:18:38;6.30;84.60
27072;DHT22;14613;46.308;25.288;2023-10-31T05:21:04;6.30;85.40
27072;DHT22;14613;46.308;25.288;2023-10-31T05:23:30;6.30;84.60
27072;DHT22;14613;46.308;25.288;2023-10-31T05:25:55;6.30;84.60
27072;DHT22;14613;46.308;25.288;2023-10-31T05:28:21;6.30;84.60
27072;DHT22;14613;46.308;25.288;2023-10-31T05:30:47;6.30;84.60
27072;DHT22;14613;46.308;25.288;2023-10-31T05:33:15;6.30;84.60
27072;DHT22;14613;46.308;25.288;2023-10-31T05:35:41;6.30;84.60
27072;DHT22;14613;46.308;25.288;2023-10-31T05:38:07;6.30;84.80
27072;DHT22;14613;46.308;25.288;2023-10-31T05:40:32;6.30;85.00
27072;DHT22;14613;46.308;25.288;2023-10-31T05:43:01;6.30;85.30
27072;DHT22;14613;46.308;25.288;2023-10-31T05:45:27;6.30;85.60
27072;DHT22;14613;46.308;25.288;2023-10-31T05:47:52;6.40;85.70
27072;DHT22;14613;46.308;25.288;2023-10-31T05:50:18;6.40;85.70
27072;DHT22;14613;46.308;25.288;2023-10-31T05:52:44;6.60;85.80
27072;DHT22;14613;46.308;25.288;2023-10-31T05:55:10;6.70;85.60
27072;DHT22;14613;46.308;25.288;2023-10-31T05:57:36;6.80;85.60
27072;DHT22;14613;46.308;25.288;2023-10-31T06:00:01;7.00;85.60
27072;DHT22;14613;46.308;25.288;2023-10-31T06:02:27;7.10;85.50
27072;DHT22;14613;46.308;25.288;2023-10-31T06:04:54;7.20;85.50
27072;DHT22;14613;46.308;25.288;2023-10-31T06:07:20;7.40;85.50
27072;DHT22;14613;46.308;25.288;2023-10-31T06:09:45;7.60;86.30
27072;DHT22;14613;46.308;25.288;2023-10-31T06:12:11;7.70;85.50
27072;DHT22;14613;46.308;25.288;2023-10-31T06:14:37;7.90;85.50
27072;DHT22;14613;46.308;25.288;2023-10-31T06:17:03;8.10;85.50
27072;DHT22;14613;46.308;25.288;2023-10-31T06:19:32;8.40;85.50
27072;DHT22;14613;46.308;25.288;2023-10-31T06:21:58;8.60;85.40
27072;DHT22;14613;46.308;25.288;2023-10-31T06:24:24;8.70;85.30
27072;DHT22;14613;46.308;25.288;2023-10-31T06:26:49;8.90;85.40
27072;DHT22;14613;46.308;25.288;2023-10-31T06:29:15;9.20;85.40
27072;DHT22;14613;46.308;25.288;2023-10-31T06:31:41;9.40;85.30
27072;DHT22;14613;46.308;25.288;2023-10-31T06:34:07;9.70;85.10
27072;DHT22;14613;46.308;25.288;2023-10-31T06:36:33;9.90;84.90
27072;DHT22;14613;46.308;25.288;2023-10-31T06:38:58;10.20;84.80
27072;DHT22;14613;46.308;25.288;2023-10-31T06:41:24;10.50;84.60
27072;DHT22;14613;46.308;25.288;2023-10-31T06:43:50;10.80;84.30
27072;DHT22;14613;46.308;25.288;2023-10-31T06:46:16;11.10;84.00
27072;DHT22;14613;46.308;25.288;2023-10-31T06:48:42;11.40;83.80
27072;DHT22;14613;46.308;25.288;2023-10-31T06:51:07;11.70;83.40
27072;DHT22;14613;46.308;25.288;2023-10-31T06:53:33;12.00;83.00
27072;DHT22;14613;46.308;25.288;2023-10-31T06:55:59;12.20;82.50
27072;DHT22;14613;46.308;25.288;2023-10-31T06:58:24;12.50;82.20
27072;DHT22;14613;46.308;25.288;2023-10-31T07:00:50;12.70;81.80
27072;DHT22;14613;46.308;25.288;2023-10-31T07:03:17;13.00;81.60
27072;DHT22;14613;46.308;25.288;2023-10-31T07:05:43;13.20;81.10
27072;DHT22;14613;46.308;25.288;2023-10-31T07:08:09;13.40;80.70
27072;DHT22;14613;46.308;25.288;2023-10-31T07:10:34;13.60;80.60
27072;DHT22;14613;46.308;25.288;2023-10-31T07:13:00;13.90;80.50
27072;DHT22;14613;46.308;25.288;2023-10-31T07:15:26;14.10;80.20
27072;DHT22;14613;46.308;25.288;2023-10-31T07:17:52;14.40;79.90
27072;DHT22;14613;46.308;25.288;2023-10-31T07:20:17;14.60;79.50
27072;DHT22;14613;46.308;25.288;2023-10-31T07:22:43;14.80;78.80
27072;DHT22;14613;46.308;25.288;2023-10-31T07:25:09;15.00;78.50
27072;DHT22;14613;46.308;25.288;2023-10-31T07:27:35;15.20;78.30
27072;DHT22;14613;46.308;25.288;2023-10-31T07:30:03;15.40;78.00
27072;DHT22;14613;46.308;25.288;2023-10-31T07:32:33;15.60;77.60
27072;DHT22;14613;46.308;25.288;2023-10-31T07:34:59;15.80;77.10
27072;DHT22;14613;46.308;25.288;2023-10-31T07:37:25;16.00;76.80
27072;DHT22;14613;46.308;25.288;2023-10-31T07:39:51;16.20;76.60
27072;DHT22;14613;46.308;25.288;2023-10-31T07:42:17;16.40;76.10
27072;DHT22;14613;46.308;25.288;2023-10-31T07:44:42;16.60;75.90
27072;DHT22;14613;46.308;25.288;2023-10-31T07:47:08;16.80;75.60
27072;DHT22;14613;46.308;25.288;2023-10-31T07:49:34;17.00;75.30
27072;DHT22;14613;46.308;25.288;2023-10-31T07:52:00;17.20;74.80
27072;DHT22;14613;46.308;25.288;2023-10-31T07:54:26;17.40;74.20
27072;DHT22;14613;46.308;25.288;2023-10-31T07:56:52;17.50;73.60
27072;DHT22;14613;46.308;25.288;2023-10-31T07:59:18;17.70;73.30
27072;DHT22;14613;46.308;25.288;2023-10-31T08:01:44;17.80;73.10
27072;DHT22;14613;46.308;25.288;2023-10-31T08:04:10;18.00;72.90
27072;DHT22;14613;46.308;25.288;2023-10-31T08:06:35;18.10;72.70
27072;DHT22;14613;46.308;25.288;2023-10-31T08:09:01;18.30;72.30
27072;DHT22;14613;46.308;25.288;2023-10-31T08:11:27;18.50;71.70
27072;DHT22;14613;46.308;25.288;2023-10-31T08:13:53;18.60;71.20
27072;DHT22;14613;46.308;25.288;2023-10-31T08:16:19;18.70;71.10
27072;DHT22;14613;46.308;25.288;2023-10-31T08:18:45;18.80;70.80
27072;DHT22;14613;46.308;25.288;2023-10-31T08:21:11;19.00;70.60
27072;DHT22;14613;46.308;25.288;2023-10-31T08:23:37;19.20;70.50
27072;DHT22;14613;46.308;25.288;2023-10-31T08:26:03;19.40;70.30
27072;DHT22;14613;46.308;25.288;2023-10-31T08:28:29;19.60;69.80
27072;DHT22;14613;46.308;25.288;2023-10-31T08:30:56;19.80;69.30
27072;DHT22;14613;46.308;25.288;2023-10-31T08:33:22;19.90;68.90
27072;DHT22;14613;46.308;25.288;2023-10-31T08:35:48;20.20;68.90
27072;DHT22;14613;46.308;25.288;2023-10-31T08:38:14;20.40;68.50
27072;DHT22;14613;46.308;25.288;2023-10-31T08:40:41;20.60;68.80
27072;DHT22;14613;46.308;25.288;2023-10-31T08:43:06;20.70;67.10
27072;DHT22;14613;46.308;25.288;2023-10-31T08:45:33;20.90;66.90
27072;DHT22;14613;46.308;25.288;2023-10-31T08:47:59;21.10;66.70
27072;DHT22;14613;46.308;25.288;2023-10-31T08:50:26;21.20;66.50
27072;DHT22;14613;46.308;25.288;2023-10-31T08:52:52;21.30;66.30
27072;DHT22;14613;46.308;25.288;2023-10-31T08:55:18;21.30;66.00
27072;DHT22;14613;46.308;25.288;2023-10-31T08:57:43;21.30;66.00
27072;DHT22;14613;46.308;25.288;2023-10-31T09:00:09;21.30;65.90
27072;DHT22;14613;46.308;25.288;2023-10-31T09:02:35;21.50;65.10
27072;DHT22;14613;46.308;25.288;2023-10-31T09:05:01;21.80;64.60
27072;DHT22;14613;46.308;25.288;2023-10-31T09:07:27;22.00;64.20
27072;DHT22;14613;46.308;25.288;2023-10-31T09:09:53;22.20;64.60
27072;DHT22;14613;46.308;25.288;2023-10-31T09:12:18;22.40;63.10
27072;DHT22;14613;46.308;25.288;2023-10-31T09:14:44;22.50;62.30
27072;DHT22;14613;46.308;25.288;2023-10-31T09:17:10;22.60;61.50
27072;DHT22;14613;46.308;25.288;2023-10-31T09:19:36;22.60;61.20
27072;DHT22;14613;46.308;25.288;2023-10-31T09:22:02;22.60;61.10
27072;DHT22;14613;46.308;25.288;2023-10-31T09:24:28;22.60;61.10
27072;DHT22;14613;46.308;25.288;2023-10-31T09:26:53;22.80;60.80
27072;DHT22;14613;46.308;25.288;2023-10-31T09:29:19;23.00;59.90
27072;DHT22;14613;46.308;25.288;2023-10-31T09:31:45;23.20;59.30
27072;DHT22;14613;46.308;25.288;2023-10-31T09:34:11;23.40;58.90
27072;DHT22;14613;46.308;25.288;2023-10-31T09:36:38;23.40;56.90
27072;DHT22;14613;46.308;25.288;2023-10-31T09:39:04;23.40;57.00
27072;DHT22;14613;46.308;25.288;2023-10-31T09:41:30;23.50;57.20
27072;DHT22;14613;46.308;25.288;2023-10-31T09:43:58;23.50;57.40
27072;DHT22;14613;46.308;25.288;2023-10-31T09:46:24;23.60;56.60
27072;DHT22;14613;46.308;25.288;2023-10-31T09:48:50;23.60;55.90
27072;DHT22;14613;46.308;25.288;2023-10-31T09:51:17;23.70;55.70
27072;DHT22;14613;46.308;25.288;2023-10-31T09:53:45;23.80;55.40
27072;DHT22;14613;46.308;25.288;2023-10-31T09:56:13;24.00;55.50
27072;DHT22;14613;46.308;25.288;2023-10-31T09:58:39;24.00;55.60
27072;DHT22;14613;46.308;25.288;2023-10-31T10:01:07;24.10;55.60
27072;DHT22;14613;46.308;25.288;2023-10-31T10:03:32;24.30;55.60
27072;DHT22;14613;46.308;25.288;2023-10-31T10:05:58;24.30;55.60
27072;DHT22;14613;46.308;25.288;2023-10-31T10:08:24;24.30;55.70
27072;DHT22;14613;46.308;25.288;2023-10-31T10:10:50;24.40;55.50
27072;DHT22;14613;46.308;25.288;2023-10-31T10:13:23;24.40;55.30
27072;DHT22;14613;46.308;25.288;2023-10-31T10:15:50;24.60;55.30
27072;DHT22;14613;46.308;25.288;2023-10-31T10:18:31;24.70;55.30
27072;DHT22;14613;46.308;25.288;2023-10-31T10:20:59;24.80;54.90
27072;DHT22;14613;46.308;25.288;2023-10-31T10:23:26;24.90;54.80
27072;DHT22;14613;46.308;25.288;2023-10-31T10:25:53;25.10;54.80
27072;DHT22;14613;46.308;25.288;2023-10-31T10:28:19;25.20;54.80
27072;DHT22;14613;46.308;25.288;2023-10-31T10:30:48;25.20;54.50
27072;DHT22;14613;46.308;25.288;2023-10-31T10:33:15;25.40;54.30
27072;DHT22;14613;46.308;25.288;2023-10-31T10:35:42;25.50;54.10
27072;DHT22;14613;46.308;25.288;2023-10-31T10:38:12;25.60;54.00
27072;DHT22;14613;46.308;25.288;2023-10-31T10:40:42;25.70;53.70
27072;DHT22;14613;46.308;25.288;2023-10-31T10:43:20;25.70;53.30
27072;DHT22;14613;46.308;25.288;2023-10-31T10:45:46;25.80;53.20
27072;DHT22;14613;46.308;25.288;2023-10-31T10:48:16;25.80;53.30
27072;DHT22;14613;46.308;25.288;2023-10-31T10:50:43;25.80;53.50
27072;DHT22;14613;46.308;25.288;2023-10-31T10:53:22;25.80;53.60
27072;DHT22;14613;46.308;25.288;2023-10-31T10:55:52;25.80;53.40
27072;DHT22;14613;46.308;25.288;2023-10-31T10:58:44;25.90;53.30
27072;DHT22;14613;46.308;25.288;2023-10-31T11:01:10;26.00;53.10
27072;DHT22;14613;46.308;25.288;2023-10-31T11:03:36;26.10;53.20
27072;DHT22;14613;46.308;25.288;2023-10-31T11:06:03;26.20;53.20
27072;DHT22;14613;46.308;25.288;2023-10-31T11:08:30;26.20;53.10
27072;DHT22;14613;46.308;25.288;2023-10-31T11:10:57;26.20;53.10
27072;DHT22;14613;46.308;25.288;2023-10-31T11:13:23;26.20;52.80
27072;DHT22;14613;46.308;25.288;2023-10-31T11:15:54;26.10;52.90
27072;DHT22;14613;46.308;25.288;2023-10-31T11:18:21;26.00;52.80
27072;DHT22;14613;46.308;25.288;2023-10-31T11:20:48;26.00;52.40
27072;DHT22;14613;46.308;25.288;2023-10-31T11:23:14;26.00;52.20
27072;DHT22;14613;46.308;25.288;2023-10-31T11:25:44;26.10;52.10
27072;DHT22;14613;46.308;25.288;2023-10-31T11:28:13;26.20;52.00
27072;DHT22;14613;46.308;25.288;2023-10-31T11:30:40;26.30;51.90
27072;DHT22;14613;46.308;25.288;2023-10-31T11:33:11;26.30;51.90
27072;DHT22;14613;46.308;25.288;2023-10-31T11:35:39;26.40;51.60
27072;DHT22;14613;46.308;25.288;2023-10-31T11:38:07;26.40;51.10
27072;DHT22;14613;46.308;25.288;2023-10-31T11:40:35;26.40;50.50
27072;DHT22;14613;46.308;25.288;2023-10-31T11:43:05;26.40;50.60
27072;DHT22;14613;46.308;25.288;2023-10-31T11:45:42;26.50;50.60
27072;DHT22;14613;46.308;25.288;2023-10-31T11:48:10;26.50;50.10
27072;DHT22;14613;46.308;25.288;2023-10-31T11:50:37;26.40;49.80
27072;DHT22;14613;46.308;25.288;2023-10-31T11:55:34;26.40;50.10
27072;DHT22;14613;46.308;25.288;2023-10-31T11:58:20;26.50;50.10
27072;DHT22;14613;46.308;25.288;2023-10-31T12:01:01;26.50;50.10
27072;DHT22;14613;46.308;25.288;2023-10-31T12:03:27;26.50;50.00
27072;DHT22;14613;46.308;25.288;2023-10-31T12:05:58;26.50;49.90
27072;DHT22;14613;46.308;25.288;2023-10-31T12:08:28;26.50;49.90
27072;DHT22;14613;46.308;25.288;2023-10-31T12:13:31;26.40;49.80
27072;DHT22;14613;46.308;25.288;2023-10-31T12:15:56;26.40;49.70
27072;DHT22;14613;46.308;25.288;2023-10-31T12:18:22;26.40;49.30
27072;DHT22;14613;46.308;25.288;2023-10-31T12:20:49;26.40;49.00
27072;DHT22;14613;46.308;25.288;2023-10-31T12:23:15;26.40;48.80
27072;DHT22;14613;46.308;25.288;2023-10-31T12:25:49;26.40;48.70
27072;DHT22;14613;46.308;25.288;2023-10-31T12:28:19;26.40;48.40
27072;DHT22;14613;46.308;25.288;2023-10-31T12:30:47;26.40;48.50
27072;DHT22;14613;46.308;25.288;2023-10-31T12:33:13;26.40;48.50
27072;DHT22;14613;46.308;25.288;2023-10-31T12:35:39;26.40;48.50
27072;DHT22;14613;46.308;25.288;2023-10-31T12:38:06;26.40;48.50
27072;DHT22;14613;46.308;25.288;2023-10-31T12:40:33;26.40;48.50
27072;DHT22;14613;46.308;25.288;2023-10-31T12:42:59;26.40;48.30
27072;DHT22;14613;46.308;25.288;2023-10-31T12:45:26;26.40;48.00
27072;DHT22;14613;46.308;25.288;2023-10-31T12:48:06;26.40;47.80
27072;DHT22;14613;46.308;25.288;2023-10-31T12:50:33;26.40;47.60
27072;DHT22;14613;46.308;25.288;2023-10-31T12:52:59;26.40;47.70
27072;DHT22;14613;46.308;25.288;2023-10-31T12:55:27;26.40;47.60
27072;DHT22;14613;46.308;25.288;2023-10-31T12:57:54;26.30;47.50
27072;DHT22;14613;46.308;25.288;2023-10-31T13:00:22;26.30;47.50
27072;DHT22;14613;46.308;25.288;2023-10-31T13:02:52;26.20;47.60
27072;DHT22;14613;46.308;25.288;2023-10-31T13:05:26;26.20;47.60
27072;DHT22;14613;46.308;25.288;2023-10-31T13:07:53;26.10;47.50
27072;DHT22;14613;46.308;25.288;2023-10-31T13:10:19;25.90;47.40
27072;DHT22;14613;46.308;25.288;2023-10-31T13:12:46;25.80;47.30
27072;DHT22;14613;46.308;25.288;2023-10-31T13:15:13;25.70;47.30
27072;DHT22;14613;46.308;25.288;2023-10-31T13:17:39;25.60;47.40
27072;DHT22;14613;46.308;25.288;2023-10-31T13:20:07;25.50;47.50
27072;DHT22;14613;46.308;25.288;2023-10-31T13:22:35;25.40;47.70
27072;DHT22;14613;46.308;25.288;2023-10-31T13:25:05;25.30;47.80
27072;DHT22;14613;46.308;25.288;2023-10-31T13:27:45;25.20;48.00
27072;DHT22;14613;46.308;25.288;2023-10-31T13:30:16;25.10;48.10
27072;DHT22;14613;46.308;25.288;2023-10-31T13:32:43;25.00;48.20
27072;DHT22;14613;46.308;25.288;2023-10-31T13:35:09;24.90;48.30
27072;DHT22;14613;46.308;25.288;2023-10-31T13:37:36;24.90;48.40
27072;DHT22;14613;46.308;25.288;2023-10-31T13:40:03;24.80;48.50
27072;DHT22;14613;46.308;25.288;2023-10-31T13:42:29;24.80;48.60
27072;DHT22;14613;46.308;25.288;2023-10-31T13:44:55;24.60;48.60
27072;DHT22;14613;46.308;25.288;2023-10-31T13:47:21;24.60;48.90
27072;DHT22;14613;46.308;25.288;2023-10-31T13:49:46;24.50;49.00
27072;DHT22;14613;46.308;25.288;2023-10-31T13:52:12;24.50;49.20
27072;DHT22;14613;46.308;25.288;2023-10-31T13:54:38;24.40;49.30
27072;DHT22;14613;46.308;25.288;2023-10-31T13:57:04;24.40;49.40
27072;DHT22;14613;46.308;25.288;2023-10-31T13:59:30;24.30;49.40
27072;DHT22;14613;46.308;25.288;2023-10-31T14:01:57;24.30;49.40
27072;DHT22;14613;46.308;25.288;2023-10-31T14:04:22;24.20;49.30
27072;DHT22;14613;46.308;25.288;2023-10-31T14:06:48;24.10;49.50
27072;DHT22;14613;46.308;25.288;2023-10-31T14:09:14;24.00;49.60
27072;DHT22;14613;46.308;25.288;2023-10-31T14:11:41;23.90;49.80
27072;DHT22;14613;46.308;25.288;2023-10-31T14:14:07;23.80;50.00
27072;DHT22;14613;46.308;25.288;2023-10-31T14:16:39;23.70;50.10
27072;DHT22;14613;46.308;25.288;2023-10-31T14:19:06;23.70;50.30
27072;DHT22;14613;46.308;25.288;2023-10-31T14:21:33;23.60;50.40
27072;DHT22;14613;46.308;25.288;2023-10-31T14:24:00;23.40;50.50
27072;DHT22;14613;46.308;25.288;2023-10-31T14:26:26;23.30;50.60
27072;DHT22;14613;46.308;25.288;2023-10-31T14:28:52;23.30;50.80
27072;DHT22;14613;46.308;25.288;2023-10-31T14:31:18;23.20;51.00
27072;DHT22;14613;46.308;25.288;2023-10-31T14:33:46;23.10;51.20
27072;DHT22;14613;46.308;25.288;2023-10-31T14:36:12;23.00;51.30
27072;DHT22;14613;46.308;25.288;2023-10-31T14:38:38;22.90;51.40
27072;DHT22;14613;46.308;25.288;2023-10-31T14:41:04;22.70;51.40
27072;DHT22;14613;46.308;25.288;2023-10-31T14:43:30;22.60;51.50
27072;DHT22;14613;46.308;25.288;2023-10-31T14:45:57;22.50;51.60
27072;DHT22;14613;46.308;25.288;2023-10-31T14:48:23;22.40;51.80
27072;DHT22;14613;46.308;25.288;2023-10-31T14:50:49;22.40;51.90
27072;DHT22;14613;46.308;25.288;2023-10-31T14:53:18;22.30;51.90
27072;DHT22;14613;46.308;25.288;2023-10-31T14:55:47;22.20;52.10
27072;DHT22;14613;46.308;25.288;2023-10-31T14:58:13;22.10;52.30
27072;DHT22;14613;46.308;25.288;2023-10-31T15:00:39;22.00;52.40
27072;DHT22;14613;46.308;25.288;2023-10-31T15:03:05;21.90;52.60
27072;DHT22;14613;46.308;25.288;2023-10-31T15:05:30;21.90;52.70
27072;DHT22;14613;46.308;25.288;2023-10-31T15:07:57;21.80;52.80
27072;DHT22;14613;46.308;25.288;2023-10-31T15:10:24;21.70;52.90
27072;DHT22;14613;46.308;25.288;2023-10-31T15:12:51;21.60;53.00
27072;DHT22;14613;46.308;25.288;2023-10-31T15:15:17;21.60;53.00
27072;DHT22;14613;46.308;25.288;2023-10-31T15:17:43;21.50;53.10
27072;DHT22;14613;46.308;25.288;2023-10-31T15:20:09;21.40;53.20
27072;DHT22;14613;46.308;25.288;2023-10-31T15:22:38;21.30;53.30
27072;DHT22;14613;46.308;25.288;2023-10-31T15:25:04;21.30;53.40